Time;durP1;ratioP1;P1;durP2;ratioP2;P2;SDS_P1;SDS_P2;PMS_P1;PMS_P2;Temp;Humidity;BMP_temperature;BMP_pressure;BME280_temperature;BME280_humidity;BME280_pressure;Samples;Min_cycle;Max_cycle;Signal;HPM_P1;HPM_P2
2023/03/11 00:01:26;;;;;;;50.35;29.50;;;;;;;;;;4881140;29;20037;-77
2023/03/11 00:03:52;;;;;;;46.85;27.55;;;;;;;;;;4884192;29;20033;-77
2023/03/11 00:06:18;;;;;;;36.13;24.27;;;;;;;;;;4881474;29;20025;-77
2023/03/11 00:08:47;;;;;;;43.00;22.17;;;;;;;;;;4858624;29;20387;-77
2023/03/11 00:11:13;;;;;;;29.08;16.38;;;;;;;;;;4879852;29;20037;-79
2023/03/11 00:13:40;;;;;;;30.58;18.25;;;;;;;;;;4881500;29;20037;-77
2023/03/11 00:16:06;;;;;;;37.03;22.65;;;;;;;;;;4880574;29;20051;-77
2023/03/11 00:18:32;;;;;;;43.88;25.05;;;;;;;;;;4879930;29;20069;-77
2023/03/11 00:20:59;;;;;;;43.42;25.27;;;;;;;;;;4873954;29;20041;-76
2023/03/11 00:23:26;;;;;;;30.60;20.15;;;;;;;;;;4881579;29;20068;-76
2023/03/11 00:25:52;;;;;;;34.22;19.52;;;;;;;;;;4877630;29;20033;-77
2023/03/11 00:28:19;;;;;;;27.67;18.67;;;;;;;;;;4880468;29;20035;-77
2023/03/11 00:30:46;;;;;;;28.55;19.20;;;;;;;;;;4856453;29;20045;-78
2023/03/11 00:33:13;;;;;;;23.67;16.20;;;;;;;;;;4858439;29;20033;-77
2023/03/11 00:35:39;;;;;;;22.30;14.43;;;;;;;;;;4854570;29;20480;-77
2023/03/11 00:38:06;;;;;;;24.83;14.18;;;;;;;;;;4861696;29;20029;-77
2023/03/11 00:40:33;;;;;;;23.92;13.55;;;;;;;;;;4856097;29;20136;-77
2023/03/11 00:42:59;;;;;;;18.88;13.25;;;;;;;;;;4854569;29;20108;-77
2023/03/11 00:45:26;;;;;;;16.20;10.70;;;;;;;;;;4860395;29;20068;-77
2023/03/11 00:47:52;;;;;;;17.67;11.05;;;;;;;;;;4863079;29;20437;-78
2023/03/11 00:50:23;;;;;;;17.08;11.70;;;;;;;;;;4871248;29;20058;-79
2023/03/11 00:52:50;;;;;;;28.65;14.52;;;;;;;;;;4875130;29;20041;-77
2023/03/11 00:55:18;;;;;;;33.80;16.35;;;;;;;;;;4860266;29;20055;-79
2023/03/11 00:57:44;;;;;;;25.15;13.45;;;;;;;;;;4859477;29;20061;-77
2023/03/11 01:00:18;;;;;;;17.17;11.32;;;;;;;;;;4853806;29;20049;-77
2023/03/11 01:02:44;;;;;;;14.88;10.57;;;;;;;;;;4864806;29;20388;-78
2023/03/11 01:05:11;;;;;;;19.77;12.60;;;;;;;;;;4848598;29;20116;-77
2023/03/11 01:07:37;;;;;;;19.10;11.93;;;;;;;;;;4863421;29;20036;-78
2023/03/11 01:10:04;;;;;;;18.60;11.40;;;;;;;;;;4857511;29;20518;-77
2023/03/11 01:12:30;;;;;;;19.80;11.93;;;;;;;;;;4857481;29;20075;-78
2023/03/11 01:14:57;;;;;;;20.40;12.45;;;;;;;;;;4858535;29;20041;-80
2023/03/11 01:17:23;;;;;;;19.33;10.23;;;;;;;;;;4857570;29;20063;-78
2023/03/11 01:19:49;;;;;;;11.70;9.63;;;;;;;;;;4858203;29;20116;-77
2023/03/11 01:22:15;;;;;;;12.70;9.23;;;;;;;;;;4855231;29;20033;-77
2023/03/11 01:24:42;;;;;;;15.75;9.80;;;;;;;;;;4854972;29;20029;-76
2023/03/11 01:27:08;;;;;;;13.88;9.88;;;;;;;;;;4852980;29;20033;-78
2023/03/11 01:29:34;;;;;;;15.27;9.65;;;;;;;;;;4867728;29;20031;-77
2023/03/11 01:32:00;;;;;;;12.23;9.57;;;;;;;;;;4875763;29;20029;-77
2023/03/11 01:34:26;;;;;;;17.58;10.57;;;;;;;;;;4875650;29;20381;-77
2023/03/11 01:36:52;;;;;;;13.38;8.27;;;;;;;;;;4876786;29;20095;-77
2023/03/11 01:39:18;;;;;;;15.40;9.00;;;;;;;;;;4872917;29;20032;-77
2023/03/11 01:41:44;;;;;;;22.35;11.15;;;;;;;;;;4869155;29;20037;-77
2023/03/11 01:44:11;;;;;;;15.40;10.40;;;;;;;;;;4856042;29;20388;-76
2023/03/11 01:46:52;;;;;;;20.00;11.25;;;;;;;;;;4873104;29;20480;-76
2023/03/11 01:49:19;;;;;;;17.48;10.13;;;;;;;;;;4871022;29;20026;-78
2023/03/11 01:51:48;;;;;;;16.77;10.68;;;;;;;;;;4878377;29;20044;-77
2023/03/11 01:54:16;;;;;;;17.30;9.57;;;;;;;;;;4876385;29;20036;-77
2023/03/11 01:56:43;;;;;;;14.98;8.93;;;;;;;;;;4881277;29;20028;-77
2023/03/11 01:59:11;;;;;;;14.98;8.70;;;;;;;;;;4882678;29;20950;-76
2023/03/11 02:01:40;;;;;;;11.48;7.85;;;;;;;;;;4872377;29;20030;-77
2023/03/11 02:04:06;;;;;;;14.52;9.13;;;;;;;;;;4875621;29;20059;-76
2023/03/11 02:06:33;;;;;;;12.00;8.30;;;;;;;;;;4877471;29;20056;-77
2023/03/11 02:08:59;;;;;;;14.30;8.88;;;;;;;;;;4876137;29;20097;-78
2023/03/11 02:11:28;;;;;;;16.30;9.00;;;;;;;;;;4876407;29;20040;-77
2023/03/11 02:13:56;;;;;;;12.18;8.85;;;;;;;;;;4878564;29;20060;-77
2023/03/11 02:16:22;;;;;;;14.02;9.23;;;;;;;;;;4872567;29;20058;-77
2023/03/11 02:18:48;;;;;;;13.45;8.80;;;;;;;;;;4875966;29;20033;-79
2023/03/11 02:21:28;;;;;;;14.05;8.52;;;;;;;;;;4878101;29;20063;-77
2023/03/11 02:24:03;;;;;;;14.93;8.98;;;;;;;;;;4872940;29;20025;-79
2023/03/11 02:26:31;;;;;;;16.08;9.65;;;;;;;;;;4873596;29;20476;-77
2023/03/11 02:28:58;;;;;;;12.90;9.25;;;;;;;;;;4872797;29;20037;-79
2023/03/11 02:31:25;;;;;;;12.75;9.98;;;;;;;;;;4877254;29;20053;-78
2023/03/11 02:33:53;;;;;;;16.83;8.98;;;;;;;;;;4859799;29;20045;-78
2023/03/11 02:36:38;;;;;;;11.63;8.57;;;;;;;;;;4875641;29;20105;-77
2023/03/11 02:39:05;;;;;;;12.32;9.27;;;;;;;;;;4874666;29;20037;-77
2023/03/11 02:41:31;;;;;;;13.85;9.23;;;;;;;;;;4873085;29;20124;-77
2023/03/11 02:43:58;;;;;;;11.25;8.07;;;;;;;;;;4866801;29;20029;-76
2023/03/11 02:46:24;;;;;;;12.88;8.32;;;;;;;;;;4874260;29;20029;-77
2023/03/11 02:48:51;;;;;;;15.60;9.25;;;;;;;;;;4870580;29;20073;-77
2023/03/11 02:51:17;;;;;;;12.48;8.13;;;;;;;;;;4870171;29;20040;-76
2023/03/11 02:53:49;;;;;;;12.00;7.38;;;;;;;;;;4873881;29;20556;-77
2023/03/11 02:56:15;;;;;;;12.85;8.25;;;;;;;;;;4871359;29;20092;-78
2023/03/11 02:58:42;;;;;;;12.70;7.70;;;;;;;;;;4865380;29;20053;-77
2023/03/11 03:01:08;;;;;;;9.60;7.53;;;;;;;;;;4873890;29;20068;-76
2023/03/11 03:03:34;;;;;;;13.93;8.45;;;;;;;;;;4879036;29;20037;-77
2023/03/11 03:06:01;;;;;;;12.25;9.20;;;;;;;;;;4882812;29;20077;-77
2023/03/11 03:08:27;;;;;;;13.18;8.25;;;;;;;;;;4870684;29;20021;-78
2023/03/11 03:10:53;;;;;;;13.20;7.80;;;;;;;;;;4892252;29;20033;-76
2023/03/11 03:13:19;;;;;;;10.73;7.43;;;;;;;;;;4886791;29;20066;-76
2023/03/11 03:15:45;;;;;;;10.20;7.25;;;;;;;;;;4881775;29;20036;-76
2023/03/11 03:18:11;;;;;;;11.45;5.93;;;;;;;;;;4878190;29;20025;-76
2023/03/11 03:20:37;;;;;;;9.40;5.60;;;;;;;;;;4877571;29;20036;-77
2023/03/11 03:23:03;;;;;;;8.85;6.25;;;;;;;;;;4878303;29;20048;-77
2023/03/11 03:25:29;;;;;;;8.48;6.07;;;;;;;;;;4878212;29;20048;-77
2023/03/11 03:27:56;;;;;;;8.35;5.93;;;;;;;;;;4860575;29;20025;-77
2023/03/11 03:30:22;;;;;;;9.93;5.88;;;;;;;;;;4878960;29;20041;-76
2023/03/11 03:32:48;;;;;;;8.05;5.90;;;;;;;;;;4875467;29;20032;-77
2023/03/11 03:35:14;;;;;;;10.07;5.90;;;;;;;;;;4872573;29;21852;-77
2023/03/11 03:37:40;;;;;;;8.57;6.20;;;;;;;;;;4872382;29;20093;-77
2023/03/11 03:40:06;;;;;;;11.13;5.88;;;;;;;;;;4875331;29;20029;-77
2023/03/11 03:42:36;;;;;;;10.77;5.93;;;;;;;;;;4876166;29;20446;-76
2023/03/11 03:45:03;;;;;;;9.40;6.10;;;;;;;;;;4877122;29;20112;-77
2023/03/11 03:47:29;;;;;;;6.82;6.00;;;;;;;;;;4876227;29;20095;-77
2023/03/11 03:49:55;;;;;;;11.85;6.30;;;;;;;;;;4860366;29;20039;-77
2023/03/11 03:52:21;;;;;;;10.68;5.35;;;;;;;;;;4876825;29;20029;-77
2023/03/11 03:54:47;;;;;;;8.07;7.00;;;;;;;;;;4862595;29;20499;-75
2023/03/11 03:57:13;;;;;;;8.50;6.63;;;;;;;;;;4878483;29;20025;-77
2023/03/11 03:59:39;;;;;;;11.65;6.60;;;;;;;;;;4878541;29;20113;-77
2023/03/11 04:02:05;;;;;;;8.73;5.80;;;;;;;;;;4881199;29;20043;-78
2023/03/11 04:04:31;;;;;;;10.27;6.07;;;;;;;;;;4879337;29;20328;-77
2023/03/11 04:06:58;;;;;;;9.68;6.75;;;;;;;;;;4880101;29;20021;-76
2023/03/11 04:09:24;;;;;;;8.13;5.75;;;;;;;;;;4876629;29;20497;-77
2023/03/11 04:11:50;;;;;;;9.55;6.32;;;;;;;;;;4865935;29;20518;-76
2023/03/11 04:14:16;;;;;;;9.68;6.45;;;;;;;;;;4865336;29;20049;-77
2023/03/11 04:16:42;;;;;;;8.70;6.28;;;;;;;;;;4883908;29;20032;-77
2023/03/11 04:19:09;;;;;;;9.35;6.10;;;;;;;;;;4862269;29;20029;-76
2023/03/11 04:21:35;;;;;;;7.15;5.05;;;;;;;;;;4878522;29;20139;-76
2023/03/11 04:24:01;;;;;;;5.20;3.58;;;;;;;;;;4874768;29;20057;-77
2023/03/11 04:26:28;;;;;;;3.13;2.45;;;;;;;;;;4874751;29;20037;-77
2023/03/11 04:28:54;;;;;;;2.55;2.08;;;;;;;;;;4872136;29;20022;-77
2023/03/11 04:31:20;;;;;;;3.88;1.88;;;;;;;;;;4873950;29;20369;-77
2023/03/11 04:33:46;;;;;;;4.10;2.17;;;;;;;;;;4875629;29;20032;-77
2023/03/11 04:36:12;;;;;;;2.45;1.92;;;;;;;;;;4873036;29;20033;-76
2023/03/11 04:38:38;;;;;;;2.90;2.13;;;;;;;;;;4870735;29;20037;-77
2023/03/11 04:41:05;;;;;;;2.58;2.05;;;;;;;;;;4879847;29;20045;-77
2023/03/11 04:43:31;;;;;;;2.85;1.88;;;;;;;;;;4874242;29;20028;-77
2023/03/11 04:45:57;;;;;;;4.28;1.90;;;;;;;;;;4872618;29;20025;-76
2023/03/11 04:48:25;;;;;;;3.92;2.00;;;;;;;;;;4873254;29;20112;-77
2023/03/11 04:50:51;;;;;;;2.72;1.90;;;;;;;;;;4875691;29;20021;-76
2023/03/11 04:53:17;;;;;;;4.68;2.35;;;;;;;;;;4869580;29;20025;-76
2023/03/11 04:55:44;;;;;;;3.83;1.90;;;;;;;;;;4871409;29;20036;-76
2023/03/11 04:58:10;;;;;;;4.82;2.10;;;;;;;;;;4873481;29;20088;-76
2023/03/11 05:00:36;;;;;;;3.20;2.13;;;;;;;;;;4871213;29;20041;-76
2023/03/11 05:03:02;;;;;;;24.10;8.07;;;;;;;;;;4875544;29;20487;-76
2023/03/11 05:05:28;;;;;;;6.85;2.65;;;;;;;;;;4878705;29;20420;-77
2023/03/11 05:07:54;;;;;;;2.00;1.80;;;;;;;;;;4879164;29;20048;-76
2023/03/11 05:10:23;;;;;;;3.05;2.50;;;;;;;;;;4874973;29;20052;-76
2023/03/11 05:12:49;;;;;;;3.60;2.30;;;;;;;;;;4873603;29;20391;-77
2023/03/11 05:15:16;;;;;;;2.83;2.10;;;;;;;;;;4881013;29;20032;-77
2023/03/11 05:17:42;;;;;;;3.97;2.85;;;;;;;;;;4876647;29;20028;-77
2023/03/11 05:20:09;;;;;;;3.65;1.90;;;;;;;;;;4877042;29;20033;-77
2023/03/11 05:22:35;;;;;;;2.10;1.90;;;;;;;;;;4864841;29;20037;-77
2023/03/11 05:25:01;;;;;;;2.97;2.03;;;;;;;;;;4873807;29;20037;-77
2023/03/11 05:27:27;;;;;;;3.65;2.20;;;;;;;;;;4877445;29;20035;-77
2023/03/11 05:29:53;;;;;;;3.08;2.00;;;;;;;;;;4869555;29;20312;-76
2023/03/11 05:32:19;;;;;;;2.03;1.90;;;;;;;;;;4873036;29;20031;-78
2023/03/11 05:34:46;;;;;;;2.92;2.17;;;;;;;;;;4859064;29;20407;-78
2023/03/11 05:37:12;;;;;;;4.53;2.20;;;;;;;;;;4875798;29;20116;-77
2023/03/11 05:39:39;;;;;;;3.35;2.20;;;;;;;;;;4875570;29;20033;-77
2023/03/11 05:42:05;;;;;;;3.15;2.40;;;;;;;;;;4881816;29;20036;-78
2023/03/11 05:44:31;;;;;;;7.30;2.45;;;;;;;;;;4873234;29;20037;-77
2023/03/11 05:46:58;;;;;;;2.50;2.30;;;;;;;;;;4873493;29;20124;-78
2023/03/11 05:49:24;;;;;;;2.75;2.30;;;;;;;;;;4876434;29;20040;-77
2023/03/11 05:51:50;;;;;;;3.15;2.30;;;;;;;;;;4887068;29;20025;-77
2023/03/11 05:54:16;;;;;;;2.72;2.20;;;;;;;;;;4878015;29;20120;-77
2023/03/11 05:56:43;;;;;;;2.45;2.00;;;;;;;;;;4880103;29;20024;-77
2023/03/11 05:59:10;;;;;;;2.58;1.98;;;;;;;;;;4876565;29;20041;-77
2023/03/11 06:01:36;;;;;;;2.60;1.95;;;;;;;;;;4877071;29;20064;-79
2023/03/11 06:04:03;;;;;;;2.22;2.03;;;;;;;;;;4865699;29;20048;-77
2023/03/11 06:06:29;;;;;;;2.72;2.47;;;;;;;;;;4863648;29;20040;-78
2023/03/11 06:08:56;;;;;;;3.13;2.80;;;;;;;;;;4865046;29;20044;-77
2023/03/11 06:11:26;;;;;;;2.97;2.30;;;;;;;;;;4876507;29;20036;-78
2023/03/11 06:13:55;;;;;;;5.60;2.33;;;;;;;;;;4877073;29;20021;-77
2023/03/11 06:16:22;;;;;;;2.78;2.45;;;;;;;;;;4877650;29;20045;-78
2023/03/11 06:18:48;;;;;;;2.08;1.80;;;;;;;;;;4877125;29;20032;-78
2023/03/11 06:21:21;;;;;;;3.00;2.40;;;;;;;;;;4863959;29;20025;-78
2023/03/11 06:23:57;;;;;;;3.08;2.42;;;;;;;;;;4877811;29;20076;-78
2023/03/11 06:26:23;;;;;;;;;;;;;;;;;;4872230;29;20507;-78
2023/03/11 06:28:50;;;;;;;2.00;1.80;;;;;;;;;;4857101;29;19912;-78
2023/03/11 06:31:27;;;;;;;2.38;2.10;;;;;;;;;;4873321;29;20052;-79
2023/03/11 06:33:57;;;;;;;3.67;1.92;;;;;;;;;;4871951;29;20032;-77
2023/03/11 06:36:23;;;;;;;4.03;2.10;;;;;;;;;;4872586;29;20539;-77
2023/03/11 06:38:53;;;;;;;3.20;2.20;;;;;;;;;;4879968;29;20495;-77
2023/03/11 06:41:19;;;;;;;2.22;2.03;;;;;;;;;;4876438;29;20061;-77
2023/03/11 06:43:45;;;;;;;3.67;2.60;;;;;;;;;;4874767;29;20116;-77
2023/03/11 06:46:13;;;;;;;3.97;2.20;;;;;;;;;;4878954;29;20029;-78
2023/03/11 06:48:39;;;;;;;2.72;2.42;;;;;;;;;;4869132;29;20025;-77
2023/03/11 06:51:05;;;;;;;12.57;7.00;;;;;;;;;;4878926;29;20039;-77
2023/03/11 06:53:31;;;;;;;3.55;3.03;;;;;;;;;;4881705;29;20033;-77
2023/03/11 06:56:00;;;;;;;3.72;2.92;;;;;;;;;;4890918;29;20032;-76
2023/03/11 06:58:26;;;;;;;6.20;3.17;;;;;;;;;;4893696;29;20073;-77
2023/03/11 07:00:52;;;;;;;3.55;2.83;;;;;;;;;;4884376;29;20037;-76
2023/03/11 07:03:19;;;;;;;3.33;2.70;;;;;;;;;;4880055;29;20480;-77
2023/03/11 07:05:45;;;;;;;4.95;3.20;;;;;;;;;;4875897;29;20036;-77
2023/03/11 07:08:11;;;;;;;3.55;2.83;;;;;;;;;;4874009;29;20033;-77
2023/03/11 07:10:37;;;;;;;4.10;3.00;;;;;;;;;;4889678;29;20029;-76
2023/03/11 07:13:03;;;;;;;3.65;2.95;;;;;;;;;;4874080;29;20040;-77
2023/03/11 07:15:31;;;;;;;3.17;2.75;;;;;;;;;;4871501;29;20514;-77
2023/03/11 07:17:57;;;;;;;4.82;2.97;;;;;;;;;;4878406;29;20025;-78
2023/03/11 07:20:23;;;;;;;4.25;2.78;;;;;;;;;;4869376;29;20262;-79
2023/03/11 07:22:49;;;;;;;4.05;3.00;;;;;;;;;;4868455;29;20044;-77
2023/03/11 07:25:15;;;;;;;3.45;2.78;;;;;;;;;;4877478;29;20029;-77
2023/03/11 07:27:41;;;;;;;3.38;2.88;;;;;;;;;;4873849;29;20037;-78
2023/03/11 07:30:08;;;;;;;4.18;2.50;;;;;;;;;;4872570;29;20140;-77
2023/03/11 07:32:34;;;;;;;4.25;2.28;;;;;;;;;;4871926;29;20044;-78
2023/03/11 07:35:00;;;;;;;3.15;2.40;;;;;;;;;;4876022;29;20033;-77
2023/03/11 07:37:26;;;;;;;5.95;3.10;;;;;;;;;;4884632;29;20039;-78
2023/03/11 07:39:52;;;;;;;3.65;2.42;;;;;;;;;;4882955;29;20037;-77
2023/03/11 07:42:18;;;;;;;4.75;2.50;;;;;;;;;;4875789;29;20032;-77
2023/03/11 07:44:44;;;;;;;4.47;2.58;;;;;;;;;;4877661;29;20025;-78
2023/03/11 07:47:10;;;;;;;4.25;2.83;;;;;;;;;;4872969;29;20412;-77
2023/03/11 07:49:36;;;;;;;3.97;2.60;;;;;;;;;;4866568;29;20036;-78
2023/03/11 07:52:02;;;;;;;4.00;2.90;;;;;;;;;;4877975;29;20433;-77
2023/03/11 07:54:29;;;;;;;5.85;2.78;;;;;;;;;;4873225;29;21231;-78
2023/03/11 07:56:55;;;;;;;5.40;3.10;;;;;;;;;;4877718;29;20460;-77
2023/03/11 07:59:21;;;;;;;4.13;2.63;;;;;;;;;;4882625;29;20037;-77
2023/03/11 08:01:47;;;;;;;4.18;2.83;;;;;;;;;;4874677;29;20061;-76
2023/03/11 08:04:15;;;;;;;3.22;2.88;;;;;;;;;;4878643;29;20509;-76
2023/03/11 08:06:42;;;;;;;5.15;3.28;;;;;;;;;;4880580;29;20727;-76
2023/03/11 08:09:08;;;;;;;3.50;2.92;;;;;;;;;;4877335;29;20029;-75
2023/03/11 08:11:35;;;;;;;4.72;3.53;;;;;;;;;;4873675;29;20104;-77
2023/03/11 08:14:01;;;;;;;4.57;3.10;;;;;;;;;;4876873;29;20080;-76
2023/03/11 08:16:28;;;;;;;6.00;3.33;;;;;;;;;;4877701;29;20397;-76
2023/03/11 08:18:54;;;;;;;3.88;3.15;;;;;;;;;;4878320;29;20113;-74
2023/03/11 08:21:21;;;;;;;4.70;3.00;;;;;;;;;;4862609;29;20585;-75
2023/03/11 08:23:47;;;;;;;4.40;3.20;;;;;;;;;;4873562;29;20081;-78
2023/03/11 08:26:15;;;;;;;3.90;3.00;;;;;;;;;;4871723;29;20029;-77
2023/03/11 08:28:41;;;;;;;4.63;3.28;;;;;;;;;;4876580;29;20029;-78
2023/03/11 08:31:13;;;;;;;6.60;3.67;;;;;;;;;;4879741;29;20061;-77
2023/03/11 08:33:39;;;;;;;8.75;3.50;;;;;;;;;;4881991;29;20092;-78
2023/03/11 08:36:05;;;;;;;5.03;3.60;;;;;;;;;;4870004;29;20085;-76
2023/03/11 08:38:31;;;;;;;3.45;3.15;;;;;;;;;;4867605;29;20040;-75
2023/03/11 08:40:57;;;;;;;5.82;3.95;;;;;;;;;;4879923;29;20067;-76
2023/03/11 08:43:23;;;;;;;5.47;3.05;;;;;;;;;;4882610;29;20037;-76
2023/03/11 08:45:49;;;;;;;4.88;3.72;;;;;;;;;;4875454;29;20028;-75
2023/03/11 08:48:15;;;;;;;4.38;3.30;;;;;;;;;;4875392;29;20057;-75
2023/03/11 08:50:44;;;;;;;5.65;4.10;;;;;;;;;;4880898;29;20032;-75
2023/03/11 08:53:12;;;;;;;4.68;3.55;;;;;;;;;;4884502;29;20052;-76
2023/03/11 08:55:38;;;;;;;4.15;3.70;;;;;;;;;;4875693;29;20456;-76
2023/03/11 08:58:04;;;;;;;8.65;4.45;;;;;;;;;;4873705;29;20040;-76
2023/03/11 09:00:30;;;;;;;4.93;3.88;;;;;;;;;;4873084;29;20432;-76
2023/03/11 09:02:56;;;;;;;7.43;4.68;;;;;;;;;;4869905;29;20029;-76
2023/03/11 09:05:22;;;;;;;6.90;4.85;;;;;;;;;;4877136;29;20029;-77
2023/03/11 09:07:49;;;;;;;6.07;4.63;;;;;;;;;;4863981;29;20025;-76
2023/03/11 09:10:15;;;;;;;4.82;4.32;;;;;;;;;;4879445;29;20039;-76
2023/03/11 09:12:42;;;;;;;6.07;4.53;;;;;;;;;;4879458;29;20428;-76
2023/03/11 09:15:08;;;;;;;6.45;4.65;;;;;;;;;;4846447;29;20045;-76
2023/03/11 09:17:34;;;;;;;5.75;4.80;;;;;;;;;;4855754;29;20029;-76
2023/03/11 09:20:01;;;;;;;6.03;4.43;;;;;;;;;;4875904;29;20017;-75
2023/03/11 09:22:30;;;;;;;10.32;5.32;;;;;;;;;;4872354;29;20033;-76
2023/03/11 09:24:56;;;;;;;5.30;3.95;;;;;;;;;;4874591;29;20034;-75
2023/03/11 09:27:23;;;;;;;12.18;5.95;;;;;;;;;;4872153;29;20099;-75
2023/03/11 09:29:49;;;;;;;7.22;5.05;;;;;;;;;;4874389;29;20056;-76
2023/03/11 09:32:15;;;;;;;5.50;3.90;;;;;;;;;;4876405;29;20044;-76
2023/03/11 09:34:41;;;;;;;6.43;4.68;;;;;;;;;;4883168;29;20033;-76
2023/03/11 09:37:07;;;;;;;6.93;4.40;;;;;;;;;;4880330;29;20044;-75
2023/03/11 09:39:34;;;;;;;8.38;4.53;;;;;;;;;;4874780;29;20088;-78
2023/03/11 09:42:06;;;;;;;3.80;3.40;;;;;;;;;;4875086;29;20029;-76
2023/03/11 09:44:45;;;;;;;5.28;3.78;;;;;;;;;;4876255;29;20469;-77
2023/03/11 09:47:29;;;;;;;4.88;4.25;;;;;;;;;;4875698;29;20028;-75
2023/03/11 09:49:58;;;;;;;6.20;4.35;;;;;;;;;;4875541;29;20032;-75
2023/03/11 09:52:31;;;;;;;5.07;4.05;;;;;;;;;;4871608;29;20480;-75
2023/03/11 09:54:59;;;;;;;6.80;3.90;;;;;;;;;;4882011;29;20043;-75
2023/03/11 09:57:28;;;;;;;6.82;4.05;;;;;;;;;;4877676;29;20031;-79
2023/03/11 09:59:54;;;;;;;4.18;3.60;;;;;;;;;;4876465;29;20025;-78
2023/03/11 10:02:21;;;;;;;4.78;4.10;;;;;;;;;;4855141;29;20399;-77
2023/03/11 10:04:56;;;;;;;8.05;5.18;;;;;;;;;;4875241;29;20029;-78
2023/03/11 10:07:32;;;;;;;7.47;4.53;;;;;;;;;;4877148;29;20488;-79
2023/03/11 10:09:59;;;;;;;6.40;3.97;;;;;;;;;;4877498;29;20035;-78
2023/03/11 10:12:36;;;;;;;5.80;4.10;;;;;;;;;;4881366;29;20083;-78
2023/03/11 10:15:08;;;;;;;4.05;3.60;;;;;;;;;;4878127;29;20029;-76
2023/03/11 10:17:46;;;;;;;7.15;4.13;;;;;;;;;;4880912;29;20483;-76
2023/03/11 10:20:24;;;;;;;6.22;4.40;;;;;;;;;;4877566;29;20038;-75
2023/03/11 10:22:53;;;;;;;3.13;2.83;;;;;;;;;;4870317;29;20041;-77
2023/03/11 10:25:40;;;;;;;3.58;2.95;;;;;;;;;;4879377;29;20075;-76
2023/03/11 10:28:14;;;;;;;3.80;2.92;;;;;;;;;;4867176;29;20492;-77
2023/03/11 10:30:57;;;;;;;3.58;3.25;;;;;;;;;;4874338;29;20124;-77
2023/03/11 10:33:45;;;;;;;5.32;2.90;;;;;;;;;;4876535;29;20029;-77
2023/03/11 10:36:17;;;;;;;3.88;3.38;;;;;;;;;;4869428;29;20032;-76
2023/03/11 10:38:45;;;;;;;4.85;2.80;;;;;;;;;;4868313;29;20025;-76
2023/03/11 10:41:18;;;;;;;3.78;3.35;;;;;;;;;;4883290;29;20026;-75
2023/03/11 10:43:46;;;;;;;4.80;3.20;;;;;;;;;;4874850;29;20024;-76
2023/03/11 10:46:19;;;;;;;2.80;2.60;;;;;;;;;;4873591;29;20110;-75
2023/03/11 10:48:45;;;;;;;3.75;3.42;;;;;;;;;;4851105;29;20029;-76
2023/03/11 10:51:21;;;;;;;3.00;2.67;;;;;;;;;;4871589;29;20029;-75
2023/03/11 10:53:54;;;;;;;4.18;3.15;;;;;;;;;;4872735;29;20021;-75
2023/03/11 10:56:29;;;;;;;3.58;3.10;;;;;;;;;;4872129;29;20468;-76
2023/03/11 10:58:56;;;;;;;3.92;2.88;;;;;;;;;;4867136;29;20104;-76
2023/03/11 11:01:23;;;;;;;3.75;3.15;;;;;;;;;;4866659;29;20037;-77
2023/03/11 11:03:50;;;;;;;3.53;2.80;;;;;;;;;;4867340;29;20043;-78
2023/03/11 11:06:20;;;;;;;4.45;3.42;;;;;;;;;;4870084;29;20511;-76
2023/03/11 11:08:46;;;;;;;3.20;2.65;;;;;;;;;;4870196;29;20139;-78
2023/03/11 11:11:22;;;;;;;7.03;4.75;;;;;;;;;;4870215;29;20459;-80
2023/03/11 11:13:59;;;;;;;3.15;2.65;;;;;;;;;;4870510;29;20380;-75
2023/03/11 11:16:25;;;;;;;2.53;2.33;;;;;;;;;;4869680;29;20065;-78
2023/03/11 11:19:07;;;;;;;3.08;2.55;;;;;;;;;;4867272;29;20037;-76
2023/03/11 11:21:36;;;;;;;3.22;2.92;;;;;;;;;;4870174;29;20567;-77
2023/03/11 11:24:05;;;;;;;3.10;2.80;;;;;;;;;;4869556;29;20029;-77
2023/03/11 11:26:31;;;;;;;3.95;2.60;;;;;;;;;;4878136;29;20033;-78
2023/03/11 11:29:10;;;;;;;3.97;2.55;;;;;;;;;;4880864;29;20032;-77
2023/03/11 11:31:59;;;;;;;5.28;3.13;;;;;;;;;;4879258;29;20060;-76
2023/03/11 11:34:28;;;;;;;3.92;2.85;;;;;;;;;;4868791;29;20051;-77
2023/03/11 11:36:56;;;;;;;4.72;3.28;;;;;;;;;;4873783;29;20152;-78
2023/03/11 11:39:23;;;;;;;4.30;3.22;;;;;;;;;;4874235;29;20166;-77
2023/03/11 11:41:49;;;;;;;3.63;2.65;;;;;;;;;;4873054;29;20043;-77
2023/03/11 11:44:18;;;;;;;3.38;2.33;;;;;;;;;;4875335;29;20036;-76
2023/03/11 11:46:47;;;;;;;2.55;2.00;;;;;;;;;;4872445;29;20037;-79
2023/03/11 11:49:13;;;;;;;3.72;2.35;;;;;;;;;;4855657;29;20356;-78
2023/03/11 11:51:39;;;;;;;2.97;2.67;;;;;;;;;;4859121;29;20029;-77
2023/03/11 11:54:11;;;;;;;2.67;2.40;;;;;;;;;;4870846;29;20580;-77
2023/03/11 11:56:39;;;;;;;3.00;2.70;;;;;;;;;;4874968;29;20037;-77
2023/03/11 11:59:09;;;;;;;3.65;3.33;;;;;;;;;;4876364;29;20056;-77
2023/03/11 12:01:38;;;;;;;2.92;2.40;;;;;;;;;;4874248;29;20033;-77
2023/03/11 12:04:07;;;;;;;3.72;2.70;;;;;;;;;;4876928;29;20521;-78
2023/03/11 12:06:42;;;;;;;11.00;5.88;;;;;;;;;;4869071;29;20104;-77
2023/03/11 12:09:29;;;;;;;13.25;6.35;;;;;;;;;;4871741;29;20518;-79
2023/03/11 12:11:59;;;;;;;22.00;9.20;;;;;;;;;;4879851;29;20044;-78
2023/03/11 12:14:29;;;;;;;13.20;6.55;;;;;;;;;;4875137;29;20609;-78
2023/03/11 12:17:00;;;;;;;8.32;4.55;;;;;;;;;;4876471;29;20029;-78
2023/03/11 12:19:35;;;;;;;5.88;3.90;;;;;;;;;;4881466;29;20511;-78
2023/03/11 12:22:10;;;;;;;7.88;4.88;;;;;;;;;;4873451;29;20147;-78
2023/03/11 12:24:36;;;;;;;4.60;3.47;;;;;;;;;;4877388;29;20578;-78
2023/03/11 12:27:05;;;;;;;8.90;3.90;;;;;;;;;;4876753;29;20132;-79
2023/03/11 12:29:34;;;;;;;5.05;3.20;;;;;;;;;;4875792;29;20108;-78
2023/03/11 12:32:01;;;;;;;5.43;3.13;;;;;;;;;;4876464;29;20104;-78
2023/03/11 12:34:27;;;;;;;4.60;3.05;;;;;;;;;;4873310;29;20040;-78
2023/03/11 12:36:54;;;;;;;4.30;2.88;;;;;;;;;;4874456;29;20085;-78
2023/03/11 12:39:28;;;;;;;3.75;2.90;;;;;;;;;;4871568;29;20132;-78
2023/03/11 12:42:12;;;;;;;4.25;3.03;;;;;;;;;;4878370;29;20036;-78
2023/03/11 12:44:39;;;;;;;6.72;3.05;;;;;;;;;;4871310;29;20037;-78
2023/03/11 12:47:11;;;;;;;3.58;2.70;;;;;;;;;;4872383;29;20123;-77
2023/03/11 12:49:45;;;;;;;5.68;3.60;;;;;;;;;;4872873;29;20035;-79
2023/03/11 12:52:12;;;;;;;7.03;3.53;;;;;;;;;;4875356;29;20101;-77
2023/03/11 12:54:39;;;;;;;8.40;4.30;;;;;;;;;;4873990;29;20100;-78
2023/03/11 12:57:05;;;;;;;4.60;2.90;;;;;;;;;;4873071;29;20033;-78
2023/03/11 12:59:50;;;;;;;4.75;3.13;;;;;;;;;;4871955;29;20037;-78
2023/03/11 13:02:31;;;;;;;2.45;1.90;;;;;;;;;;4870666;29;20033;-79
2023/03/11 13:05:27;;;;;;;2.30;2.10;;;;;;;;;;4871137;29;20115;-77
2023/03/11 13:07:59;;;;;;;2.97;2.50;;;;;;;;;;4836492;29;20429;-77
2023/03/11 13:10:35;;;;;;;2.63;2.25;;;;;;;;;;4870273;29;20619;-77
2023/03/11 13:13:02;;;;;;;3.25;2.33;;;;;;;;;;4871328;29;20036;-77
2023/03/11 13:15:30;;;;;;;3.65;2.67;;;;;;;;;;4868579;29;20136;-77
2023/03/11 13:17:59;;;;;;;6.97;4.78;;;;;;;;;;4869420;29;20064;-77
2023/03/11 13:20:40;;;;;;;5.80;3.95;;;;;;;;;;4865110;29;20349;-77
2023/03/11 13:23:10;;;;;;;8.07;5.20;;;;;;;;;;4876592;29;20693;-77
2023/03/11 13:25:50;;;;;;;4.40;2.90;;;;;;;;;;4882941;29;20118;-78
2023/03/11 13:28:19;;;;;;;4.25;3.42;;;;;;;;;;4871989;29;20517;-77
2023/03/11 13:30:54;;;;;;;3.67;2.80;;;;;;;;;;4874077;29;20120;-77
2023/03/11 13:33:47;;;;;;;3.03;2.50;;;;;;;;;;4875370;29;20465;-77
2023/03/11 13:36:23;;;;;;;2.95;2.65;;;;;;;;;;4870177;29;20072;-77
2023/03/11 13:39:09;;;;;;;4.28;2.67;;;;;;;;;;4872641;29;20036;-77
2023/03/11 13:41:36;;;;;;;7.18;5.32;;;;;;;;;;4873646;29;20395;-78
2023/03/11 13:44:23;;;;;;;7.20;4.22;;;;;;;;;;4871248;29;20052;-78
2023/03/11 13:47:08;;;;;;;5.97;3.67;;;;;;;;;;4873654;29;20173;-77
2023/03/11 13:49:50;;;;;;;5.80;3.75;;;;;;;;;;4874647;29;20032;-77
2023/03/11 13:52:21;;;;;;;3.75;3.00;;;;;;;;;;4870865;29;20036;-78
2023/03/11 13:54:49;;;;;;;4.90;3.15;;;;;;;;;;4871015;29;20039;-78
2023/03/11 13:57:35;;;;;;;4.97;2.95;;;;;;;;;;4873363;29;20037;-77
2023/03/11 14:00:28;;;;;;;6.15;3.45;;;;;;;;;;4870036;29;20043;-78
2023/03/11 14:02:55;;;;;;;3.92;3.47;;;;;;;;;;4872071;29;20097;-77
2023/03/11 14:05:27;;;;;;;4.82;3.13;;;;;;;;;;4873551;29;20039;-77
2023/03/11 14:07:54;;;;;;;6.05;3.83;;;;;;;;;;4870567;29;20039;-77
2023/03/11 14:10:24;;;;;;;4.72;3.30;;;;;;;;;;4871818;29;20495;-77
2023/03/11 14:12:51;;;;;;;4.60;2.85;;;;;;;;;;4871935;29;20136;-78
2023/03/11 14:15:26;;;;;;;7.53;5.18;;;;;;;;;;4874431;29;20103;-77
2023/03/11 14:17:53;;;;;;;7.88;5.85;;;;;;;;;;4876349;29;20033;-77
2023/03/11 14:20:23;;;;;;;6.50;5.47;;;;;;;;;;4871762;29;20056;-77
2023/03/11 14:22:51;;;;;;;3.88;3.10;;;;;;;;;;4876305;29;20028;-77
2023/03/11 14:25:24;;;;;;;3.42;2.92;;;;;;;;;;4855197;29;20029;-77
2023/03/11 14:27:52;;;;;;;4.30;3.70;;;;;;;;;;4848500;29;20024;-77
2023/03/11 14:30:24;;;;;;;3.47;2.70;;;;;;;;;;4871343;29;20567;-77
2023/03/11 14:32:57;;;;;;;5.93;4.65;;;;;;;;;;4876937;29;20487;-77
2023/03/11 14:35:23;;;;;;;7.63;5.50;;;;;;;;;;4869689;29;20483;-77
2023/03/11 14:37:49;;;;;;;18.77;10.35;;;;;;;;;;4871981;29;20028;-78
2023/03/11 14:40:26;;;;;;;16.85;11.18;;;;;;;;;;4873928;29;20033;-76
2023/03/11 14:42:53;;;;;;;8.52;7.20;;;;;;;;;;4872064;29;20041;-77
2023/03/11 14:45:21;;;;;;;7.78;5.70;;;;;;;;;;4869227;29;20447;-77
2023/03/11 14:47:48;;;;;;;4.47;4.00;;;;;;;;;;4874827;29;20021;-77